sensor_id;sensor_type;location;lat;lon;timestamp;P1;durP1;ratioP1;P2;durP2;ratioP2
45686;SDS011;31399;51.176;7.776;2022-07-21T00:01:54;10.88;;;8.82;;
45686;SDS011;31399;51.176;7.776;2022-07-21T00:04:21;16.00;;;9.65;;
45686;SDS011;31399;51.176;7.776;2022-07-21T00:06:48;13.23;;;9.18;;
45686;SDS011;31399;51.176;7.776;2022-07-21T00:09:15;10.93;;;7.80;;
45686;SDS011;31399;51.176;7.776;2022-07-21T00:11:41;11.23;;;8.27;;
45686;SDS011;31399;51.176;7.776;2022-07-21T00:14:09;11.48;;;7.82;;
45686;SDS011;31399;51.176;7.776;2022-07-21T00:16:36;13.30;;;8.88;;
45686;SDS011;31399;51.176;7.776;2022-07-21T00:19:03;11.95;;;8.73;;
45686;SDS011;31399;51.176;7.776;2022-07-21T00:21:30;11.40;;;7.97;;
45686;SDS011;31399;51.176;7.776;2022-07-21T00:23:56;11.55;;;8.05;;
45686;SDS011;31399;51.176;7.776;2022-07-21T00:26:23;12.82;;;7.90;;
45686;SDS011;31399;51.176;7.776;2022-07-21T00:28:49;11.52;;;8.30;;
45686;SDS011;31399;51.176;7.776;2022-07-21T00:31:17;12.80;;;8.98;;
45686;SDS011;31399;51.176;7.776;2022-07-21T00:33:43;9.90;;;7.88;;
45686;SDS011;31399;51.176;7.776;2022-07-21T00:36:10;7.90;;;7.07;;
45686;SDS011;31399;51.176;7.776;2022-07-21T00:38:36;9.38;;;7.30;;
45686;SDS011;31399;51.176;7.776;2022-07-21T00:41:11;10.77;;;7.32;;
45686;SDS011;31399;51.176;7.776;2022-07-21T00:43:37;12.07;;;8.18;;
45686;SDS011;31399;51.176;7.776;2022-07-21T00:46:04;9.48;;;7.35;;
45686;SDS011;31399;51.176;7.776;2022-07-21T00:48:31;11.82;;;7.63;;
45686;SDS011;31399;51.176;7.776;2022-07-21T00:50:57;8.70;;;6.95;;
45686;SDS011;31399;51.176;7.776;2022-07-21T00:53:25;9.50;;;6.85;;
45686;SDS011;31399;51.176;7.776;2022-07-21T00:55:51;7.55;;;6.65;;
45686;SDS011;31399;51.176;7.776;2022-07-21T00:58:18;7.35;;;6.05;;
45686;SDS011;31399;51.176;7.776;2022-07-21T01:00:45;7.97;;;6.28;;
45686;SDS011;31399;51.176;7.776;2022-07-21T01:03:12;10.55;;;5.78;;
45686;SDS011;31399;51.176;7.776;2022-07-21T01:05:38;9.38;;;5.43;;
45686;SDS011;31399;51.176;7.776;2022-07-21T01:08:05;9.10;;;5.63;;
45686;SDS011;31399;51.176;7.776;2022-07-21T01:10:32;7.30;;;5.03;;
45686;SDS011;31399;51.176;7.776;2022-07-21T01:12:59;6.35;;;5.13;;
45686;SDS011;31399;51.176;7.776;2022-07-21T01:15:27;8.02;;;5.07;;
45686;SDS011;31399;51.176;7.776;2022-07-21T01:17:53;7.10;;;5.45;;
45686;SDS011;31399;51.176;7.776;2022-07-21T01:20:21;10.05;;;5.22;;
45686;SDS011;31399;51.176;7.776;2022-07-21T01:22:49;8.73;;;5.88;;
45686;SDS011;31399;51.176;7.776;2022-07-21T01:25:17;8.15;;;5.30;;
45686;SDS011;31399;51.176;7.776;2022-07-21T01:27:45;5.32;;;4.53;;
45686;SDS011;31399;51.176;7.776;2022-07-21T01:30:12;8.85;;;5.20;;
45686;SDS011;31399;51.176;7.776;2022-07-21T01:32:39;6.30;;;4.55;;
45686;SDS011;31399;51.176;7.776;2022-07-21T01:35:08;6.68;;;4.88;;
45686;SDS011;31399;51.176;7.776;2022-07-21T01:37:38;6.97;;;3.73;;
45686;SDS011;31399;51.176;7.776;2022-07-21T01:40:06;6.07;;;4.95;;
45686;SDS011;31399;51.176;7.776;2022-07-21T01:42:52;10.05;;;5.80;;
45686;SDS011;31399;51.176;7.776;2022-07-21T01:45:20;10.93;;;4.90;;
45686;SDS011;31399;51.176;7.776;2022-07-21T01:47:47;11.35;;;6.00;;
45686;SDS011;31399;51.176;7.776;2022-07-21T01:50:13;9.70;;;5.45;;
45686;SDS011;31399;51.176;7.776;2022-07-21T01:52:40;9.73;;;5.35;;
45686;SDS011;31399;51.176;7.776;2022-07-21T01:55:06;8.35;;;5.38;;
45686;SDS011;31399;51.176;7.776;2022-07-21T01:57:33;13.20;;;5.05;;
45686;SDS011;31399;51.176;7.776;2022-07-21T02:00:00;8.52;;;5.07;;
45686;SDS011;31399;51.176;7.776;2022-07-21T02:02:27;6.30;;;4.43;;
45686;SDS011;31399;51.176;7.776;2022-07-21T02:04:53;7.75;;;4.30;;
45686;SDS011;31399;51.176;7.776;2022-07-21T02:07:20;8.57;;;4.50;;
45686;SDS011;31399;51.176;7.776;2022-07-21T02:09:47;6.15;;;3.72;;
45686;SDS011;31399;51.176;7.776;2022-07-21T02:12:13;6.78;;;3.88;;
45686;SDS011;31399;51.176;7.776;2022-07-21T02:14:40;5.22;;;3.58;;
45686;SDS011;31399;51.176;7.776;2022-07-21T02:17:06;7.97;;;3.70;;
45686;SDS011;31399;51.176;7.776;2022-07-21T02:19:33;9.57;;;3.50;;
45686;SDS011;31399;51.176;7.776;2022-07-21T02:22:00;6.72;;;3.67;;
45686;SDS011;31399;51.176;7.776;2022-07-21T02:24:26;5.70;;;3.58;;
45686;SDS011;31399;51.176;7.776;2022-07-21T02:26:53;6.53;;;3.67;;
45686;SDS011;31399;51.176;7.776;2022-07-21T02:29:19;5.72;;;3.35;;
45686;SDS011;31399;51.176;7.776;2022-07-21T02:31:46;5.97;;;4.03;;
45686;SDS011;31399;51.176;7.776;2022-07-21T02:34:13;6.95;;;3.42;;
45686;SDS011;31399;51.176;7.776;2022-07-21T02:36:39;6.28;;;3.92;;
45686;SDS011;31399;51.176;7.776;2022-07-21T02:39:06;6.53;;;4.32;;
45686;SDS011;31399;51.176;7.776;2022-07-21T02:41:32;8.18;;;4.45;;
45686;SDS011;31399;51.176;7.776;2022-07-21T02:43:59;6.80;;;3.88;;
45686;SDS011;31399;51.176;7.776;2022-07-21T02:46:26;7.38;;;4.38;;
45686;SDS011;31399;51.176;7.776;2022-07-21T02:48:52;5.25;;;3.60;;
45686;SDS011;31399;51.176;7.776;2022-07-21T02:51:20;6.55;;;4.07;;
45686;SDS011;31399;51.176;7.776;2022-07-21T02:53:46;7.22;;;4.13;;
45686;SDS011;31399;51.176;7.776;2022-07-21T02:56:13;7.13;;;3.72;;
45686;SDS011;31399;51.176;7.776;2022-07-21T02:58:40;5.68;;;4.22;;
45686;SDS011;31399;51.176;7.776;2022-07-21T03:01:06;10.27;;;4.53;;
45686;SDS011;31399;51.176;7.776;2022-07-21T03:03:35;6.05;;;4.15;;
45686;SDS011;31399;51.176;7.776;2022-07-21T03:06:03;6.68;;;4.70;;
45686;SDS011;31399;51.176;7.776;2022-07-21T03:08:30;8.43;;;4.80;;
45686;SDS011;31399;51.176;7.776;2022-07-21T03:10:57;9.23;;;4.97;;
45686;SDS011;31399;51.176;7.776;2022-07-21T03:13:23;9.07;;;5.68;;
45686;SDS011;31399;51.176;7.776;2022-07-21T03:15:50;6.88;;;5.05;;
45686;SDS011;31399;51.176;7.776;2022-07-21T03:18:17;6.45;;;5.10;;
45686;SDS011;31399;51.176;7.776;2022-07-21T03:20:44;6.43;;;4.35;;
45686;SDS011;31399;51.176;7.776;2022-07-21T03:23:11;5.60;;;3.80;;
45686;SDS011;31399;51.176;7.776;2022-07-21T03:25:38;5.00;;;3.50;;
45686;SDS011;31399;51.176;7.776;2022-07-21T03:28:05;6.07;;;3.70;;
45686;SDS011;31399;51.176;7.776;2022-07-21T03:30:33;4.13;;;3.45;;
45686;SDS011;31399;51.176;7.776;2022-07-21T03:33:00;5.07;;;3.65;;
45686;SDS011;31399;51.176;7.776;2022-07-21T03:35:26;4.68;;;3.45;;
45686;SDS011;31399;51.176;7.776;2022-07-21T03:37:54;4.45;;;3.22;;
45686;SDS011;31399;51.176;7.776;2022-07-21T03:40:24;4.15;;;3.15;;
45686;SDS011;31399;51.176;7.776;2022-07-21T03:42:56;4.63;;;3.28;;
45686;SDS011;31399;51.176;7.776;2022-07-21T03:47:50;5.55;;;4.10;;
45686;SDS011;31399;51.176;7.776;2022-07-21T03:50:17;6.43;;;4.38;;
45686;SDS011;31399;51.176;7.776;2022-07-21T03:52:44;12.13;;;5.20;;
45686;SDS011;31399;51.176;7.776;2022-07-21T03:55:11;6.82;;;4.82;;
45686;SDS011;31399;51.176;7.776;2022-07-21T03:57:42;9.73;;;4.82;;
45686;SDS011;31399;51.176;7.776;2022-07-21T04:00:17;6.75;;;5.22;;
45686;SDS011;31399;51.176;7.776;2022-07-21T04:02:46;7.50;;;5.32;;
45686;SDS011;31399;51.176;7.776;2022-07-21T04:05:13;6.45;;;4.75;;
45686;SDS011;31399;51.176;7.776;2022-07-21T04:07:41;9.00;;;4.80;;
45686;SDS011;31399;51.176;7.776;2022-07-21T04:10:10;6.85;;;4.25;;
45686;SDS011;31399;51.176;7.776;2022-07-21T04:12:38;10.32;;;4.75;;
45686;SDS011;31399;51.176;7.776;2022-07-21T04:15:07;8.10;;;5.43;;
45686;SDS011;31399;51.176;7.776;2022-07-21T04:17:34;7.65;;;5.80;;
45686;SDS011;31399;51.176;7.776;2022-07-21T04:20:01;7.03;;;5.13;;
45686;SDS011;31399;51.176;7.776;2022-07-21T04:22:29;7.00;;;5.18;;
45686;SDS011;31399;51.176;7.776;2022-07-21T04:24:55;8.82;;;5.00;;
45686;SDS011;31399;51.176;7.776;2022-07-21T04:27:22;7.82;;;4.38;;
45686;SDS011;31399;51.176;7.776;2022-07-21T04:29:48;8.00;;;5.05;;
45686;SDS011;31399;51.176;7.776;2022-07-21T04:32:15;5.80;;;4.85;;
45686;SDS011;31399;51.176;7.776;2022-07-21T04:34:42;6.53;;;4.38;;
45686;SDS011;31399;51.176;7.776;2022-07-21T04:37:08;5.30;;;4.22;;
45686;SDS011;31399;51.176;7.776;2022-07-21T04:39:35;6.40;;;4.47;;
45686;SDS011;31399;51.176;7.776;2022-07-21T04:42:01;6.78;;;5.18;;
45686;SDS011;31399;51.176;7.776;2022-07-21T04:44:29;6.18;;;4.88;;
45686;SDS011;31399;51.176;7.776;2022-07-21T04:46:55;5.95;;;4.97;;
45686;SDS011;31399;51.176;7.776;2022-07-21T04:49:22;7.72;;;4.63;;
45686;SDS011;31399;51.176;7.776;2022-07-21T04:51:49;8.45;;;5.47;;
45686;SDS011;31399;51.176;7.776;2022-07-21T04:54:15;8.23;;;5.60;;
45686;SDS011;31399;51.176;7.776;2022-07-21T04:56:42;6.47;;;5.50;;
45686;SDS011;31399;51.176;7.776;2022-07-21T04:59:10;7.18;;;5.65;;
45686;SDS011;31399;51.176;7.776;2022-07-21T05:01:37;12.85;;;7.82;;
45686;SDS011;31399;51.176;7.776;2022-07-21T05:04:05;13.20;;;8.98;;
45686;SDS011;31399;51.176;7.776;2022-07-21T05:06:32;12.55;;;8.55;;
45686;SDS011;31399;51.176;7.776;2022-07-21T05:08:59;12.55;;;9.52;;
45686;SDS011;31399;51.176;7.776;2022-07-21T05:11:26;13.75;;;9.88;;
45686;SDS011;31399;51.176;7.776;2022-07-21T05:13:52;17.42;;;9.70;;
45686;SDS011;31399;51.176;7.776;2022-07-21T05:16:19;12.10;;;9.18;;
45686;SDS011;31399;51.176;7.776;2022-07-21T05:18:46;16.52;;;10.57;;
45686;SDS011;31399;51.176;7.776;2022-07-21T05:21:12;13.95;;;10.40;;
45686;SDS011;31399;51.176;7.776;2022-07-21T05:23:39;17.02;;;11.55;;
45686;SDS011;31399;51.176;7.776;2022-07-21T05:26:05;19.30;;;11.43;;
45686;SDS011;31399;51.176;7.776;2022-07-21T05:28:32;17.95;;;12.30;;
45686;SDS011;31399;51.176;7.776;2022-07-21T05:30:59;17.48;;;12.98;;
45686;SDS011;31399;51.176;7.776;2022-07-21T05:33:26;19.20;;;12.88;;
45686;SDS011;31399;51.176;7.776;2022-07-21T05:35:52;19.20;;;12.40;;
45686;SDS011;31399;51.176;7.776;2022-07-21T05:38:19;20.35;;;12.77;;
45686;SDS011;31399;51.176;7.776;2022-07-21T05:40:53;17.10;;;11.35;;
45686;SDS011;31399;51.176;7.776;2022-07-21T05:43:19;14.20;;;10.60;;
45686;SDS011;31399;51.176;7.776;2022-07-21T05:45:46;17.20;;;11.27;;
45686;SDS011;31399;51.176;7.776;2022-07-21T05:48:14;17.98;;;10.95;;
45686;SDS011;31399;51.176;7.776;2022-07-21T05:50:41;16.17;;;11.40;;
45686;SDS011;31399;51.176;7.776;2022-07-21T05:53:07;15.50;;;11.05;;
45686;SDS011;31399;51.176;7.776;2022-07-21T05:55:34;15.50;;;10.95;;
45686;SDS011;31399;51.176;7.776;2022-07-21T05:58:01;23.48;;;11.52;;
45686;SDS011;31399;51.176;7.776;2022-07-21T06:00:35;14.65;;;10.60;;
45686;SDS011;31399;51.176;7.776;2022-07-21T06:03:01;13.93;;;9.98;;
45686;SDS011;31399;51.176;7.776;2022-07-21T06:05:31;13.48;;;10.13;;
45686;SDS011;31399;51.176;7.776;2022-07-21T06:07:58;12.00;;;9.50;;
45686;SDS011;31399;51.176;7.776;2022-07-21T06:10:27;14.30;;;9.98;;
45686;SDS011;31399;51.176;7.776;2022-07-21T06:12:55;13.30;;;8.57;;
45686;SDS011;31399;51.176;7.776;2022-07-21T06:15:21;11.50;;;8.52;;
45686;SDS011;31399;51.176;7.776;2022-07-21T06:17:48;12.52;;;9.10;;
45686;SDS011;31399;51.176;7.776;2022-07-21T06:20:15;10.98;;;7.68;;
45686;SDS011;31399;51.176;7.776;2022-07-21T06:22:41;11.23;;;7.43;;
45686;SDS011;31399;51.176;7.776;2022-07-21T06:25:08;11.50;;;7.93;;
45686;SDS011;31399;51.176;7.776;2022-07-21T06:27:35;9.80;;;6.07;;
45686;SDS011;31399;51.176;7.776;2022-07-21T06:30:01;9.60;;;5.97;;
45686;SDS011;31399;51.176;7.776;2022-07-21T06:32:29;7.78;;;5.82;;
45686;SDS011;31399;51.176;7.776;2022-07-21T06:34:55;7.40;;;6.03;;
45686;SDS011;31399;51.176;7.776;2022-07-21T06:37:22;8.15;;;5.50;;
45686;SDS011;31399;51.176;7.776;2022-07-21T06:39:48;7.05;;;5.57;;
45686;SDS011;31399;51.176;7.776;2022-07-21T06:42:15;7.35;;;5.47;;
45686;SDS011;31399;51.176;7.776;2022-07-21T06:44:41;9.40;;;5.47;;
45686;SDS011;31399;51.176;7.776;2022-07-21T06:47:15;8.02;;;5.20;;
45686;SDS011;31399;51.176;7.776;2022-07-21T06:49:42;6.75;;;5.20;;
45686;SDS011;31399;51.176;7.776;2022-07-21T06:52:08;6.53;;;4.78;;
45686;SDS011;31399;51.176;7.776;2022-07-21T06:54:35;8.90;;;5.43;;
45686;SDS011;31399;51.176;7.776;2022-07-21T06:57:02;6.38;;;5.30;;
45686;SDS011;31399;51.176;7.776;2022-07-21T06:59:28;6.53;;;5.50;;
45686;SDS011;31399;51.176;7.776;2022-07-21T07:01:56;9.35;;;5.80;;
45686;SDS011;31399;51.176;7.776;2022-07-21T07:04:24;7.07;;;5.68;;
45686;SDS011;31399;51.176;7.776;2022-07-21T07:06:51;9.02;;;5.63;;
45686;SDS011;31399;51.176;7.776;2022-07-21T07:09:20;7.13;;;5.97;;
45686;SDS011;31399;51.176;7.776;2022-07-21T07:11:46;8.55;;;6.05;;
45686;SDS011;31399;51.176;7.776;2022-07-21T07:14:33;7.68;;;6.07;;
45686;SDS011;31399;51.176;7.776;2022-07-21T07:17:00;7.72;;;6.03;;
45686;SDS011;31399;51.176;7.776;2022-07-21T07:19:27;10.25;;;6.82;;
45686;SDS011;31399;51.176;7.776;2022-07-21T07:21:55;9.30;;;6.45;;
45686;SDS011;31399;51.176;7.776;2022-07-21T07:24:22;9.50;;;7.13;;
45686;SDS011;31399;51.176;7.776;2022-07-21T07:26:48;9.27;;;6.35;;
45686;SDS011;31399;51.176;7.776;2022-07-21T07:29:15;7.25;;;5.65;;
45686;SDS011;31399;51.176;7.776;2022-07-21T07:31:41;8.85;;;6.38;;
45686;SDS011;31399;51.176;7.776;2022-07-21T07:34:08;7.28;;;5.63;;
45686;SDS011;31399;51.176;7.776;2022-07-21T07:36:35;7.47;;;5.40;;
45686;SDS011;31399;51.176;7.776;2022-07-21T07:39:09;8.18;;;5.55;;
45686;SDS011;31399;51.176;7.776;2022-07-21T07:41:36;6.97;;;5.03;;
45686;SDS011;31399;51.176;7.776;2022-07-21T07:44:03;7.35;;;5.47;;
45686;SDS011;31399;51.176;7.776;2022-07-21T07:46:29;7.53;;;4.78;;
45686;SDS011;31399;51.176;7.776;2022-07-21T07:48:56;5.25;;;4.75;;
45686;SDS011;31399;51.176;7.776;2022-07-21T07:51:31;6.35;;;4.38;;
45686;SDS011;31399;51.176;7.776;2022-07-21T07:53:57;5.95;;;4.30;;
45686;SDS011;31399;51.176;7.776;2022-07-21T07:56:24;4.55;;;3.97;;
45686;SDS011;31399;51.176;7.776;2022-07-21T07:58:50;4.75;;;3.55;;
45686;SDS011;31399;51.176;7.776;2022-07-21T08:01:17;6.95;;;3.60;;
45686;SDS011;31399;51.176;7.776;2022-07-21T08:03:44;5.05;;;3.42;;
45686;SDS011;31399;51.176;7.776;2022-07-21T08:06:11;4.10;;;3.22;;
45686;SDS011;31399;51.176;7.776;2022-07-21T08:08:38;4.40;;;3.40;;
45686;SDS011;31399;51.176;7.776;2022-07-21T08:11:05;6.35;;;3.72;;
45686;SDS011;31399;51.176;7.776;2022-07-21T08:13:32;5.55;;;3.13;;
45686;SDS011;31399;51.176;7.776;2022-07-21T08:15:59;4.38;;;3.05;;
45686;SDS011;31399;51.176;7.776;2022-07-21T08:18:25;6.03;;;3.30;;
45686;SDS011;31399;51.176;7.776;2022-07-21T08:20:53;3.72;;;3.40;;
45686;SDS011;31399;51.176;7.776;2022-07-21T08:23:19;4.20;;;3.00;;
45686;SDS011;31399;51.176;7.776;2022-07-21T08:25:46;5.65;;;3.00;;
45686;SDS011;31399;51.176;7.776;2022-07-21T08:28:12;5.07;;;2.70;;
45686;SDS011;31399;51.176;7.776;2022-07-21T08:30:39;3.42;;;3.00;;
45686;SDS011;31399;51.176;7.776;2022-07-21T08:33:06;3.78;;;2.90;;
45686;SDS011;31399;51.176;7.776;2022-07-21T08:35:32;3.78;;;2.92;;
45686;SDS011;31399;51.176;7.776;2022-07-21T08:38:02;3.80;;;2.88;;
45686;SDS011;31399;51.176;7.776;2022-07-21T08:40:34;3.53;;;2.67;;
45686;SDS011;31399;51.176;7.776;2022-07-21T08:43:02;3.38;;;2.28;;
45686;SDS011;31399;51.176;7.776;2022-07-21T08:45:29;3.53;;;2.40;;
45686;SDS011;31399;51.176;7.776;2022-07-21T08:47:57;3.72;;;2.40;;
45686;SDS011;31399;51.176;7.776;2022-07-21T08:50:25;3.38;;;2.30;;
45686;SDS011;31399;51.176;7.776;2022-07-21T08:52:54;2.50;;;2.30;;
45686;SDS011;31399;51.176;7.776;2022-07-21T08:55:32;2.28;;;2.05;;
45686;SDS011;31399;51.176;7.776;2022-07-21T08:58:01;5.03;;;2.10;;
45686;SDS011;31399;51.176;7.776;2022-07-21T09:00:33;5.15;;;2.38;;
45686;SDS011;31399;51.176;7.776;2022-07-21T09:06:00;4.22;;;2.20;;
45686;SDS011;31399;51.176;7.776;2022-07-21T09:08:31;2.42;;;1.77;;
45686;SDS011;31399;51.176;7.776;2022-07-21T09:13:47;2.63;;;1.77;;
45686;SDS011;31399;51.176;7.776;2022-07-21T09:19:20;1.83;;;1.40;;
45686;SDS011;31399;51.176;7.776;2022-07-21T09:21:52;1.73;;;1.48;;
45686;SDS011;31399;51.176;7.776;2022-07-21T09:24:25;1.48;;;1.35;;
45686;SDS011;31399;51.176;7.776;2022-07-21T09:27:14;2.22;;;1.65;;
45686;SDS011;31399;51.176;7.776;2022-07-21T09:32:27;2.50;;;2.03;;
45686;SDS011;31399;51.176;7.776;2022-07-21T09:35:01;3.17;;;1.80;;
45686;SDS011;31399;51.176;7.776;2022-07-21T09:37:33;1.90;;;1.58;;
45686;SDS011;31399;51.176;7.776;2022-07-21T09:40:05;5.07;;;2.75;;
45686;SDS011;31399;51.176;7.776;2022-07-21T09:42:38;5.80;;;2.28;;
45686;SDS011;31399;51.176;7.776;2022-07-21T09:45:10;3.97;;;2.42;;
45686;SDS011;31399;51.176;7.776;2022-07-21T09:47:41;5.85;;;2.60;;
45686;SDS011;31399;51.176;7.776;2022-07-21T09:50:09;3.53;;;2.45;;
45686;SDS011;31399;51.176;7.776;2022-07-21T09:52:49;3.47;;;2.67;;
45686;SDS011;31399;51.176;7.776;2022-07-21T09:55:19;6.00;;;2.60;;
45686;SDS011;31399;51.176;7.776;2022-07-21T09:57:46;3.70;;;2.30;;
45686;SDS011;31399;51.176;7.776;2022-07-21T10:00:19;2.83;;;2.35;;
45686;SDS011;31399;51.176;7.776;2022-07-21T10:02:47;3.20;;;1.98;;
45686;SDS011;31399;51.176;7.776;2022-07-21T10:05:16;2.22;;;1.70;;
45686;SDS011;31399;51.176;7.776;2022-07-21T10:07:46;2.08;;;1.92;;
45686;SDS011;31399;51.176;7.776;2022-07-21T10:10:15;1.88;;;1.25;;
45686;SDS011;31399;51.176;7.776;2022-07-21T10:12:46;3.72;;;1.70;;
45686;SDS011;31399;51.176;7.776;2022-07-21T10:15:14;4.28;;;1.52;;
45686;SDS011;31399;51.176;7.776;2022-07-21T10:17:41;2.92;;;1.70;;
45686;SDS011;31399;51.176;7.776;2022-07-21T10:23:02;1.88;;;1.52;;
45686;SDS011;31399;51.176;7.776;2022-07-21T10:25:34;3.42;;;1.88;;
45686;SDS011;31399;51.176;7.776;2022-07-21T10:30:42;4.82;;;1.73;;
45686;SDS011;31399;51.176;7.776;2022-07-21T10:33:12;3.97;;;1.90;;
45686;SDS011;31399;51.176;7.776;2022-07-21T10:35:40;3.42;;;1.77;;
45686;SDS011;31399;51.176;7.776;2022-07-21T10:41:12;7.53;;;2.08;;
45686;SDS011;31399;51.176;7.776;2022-07-21T10:44:03;2.70;;;2.10;;
45686;SDS011;31399;51.176;7.776;2022-07-21T10:47:03;3.40;;;1.83;;
45686;SDS011;31399;51.176;7.776;2022-07-21T11:00:52;3.58;;;2.70;;
45686;SDS011;31399;51.176;7.776;2022-07-21T11:03:46;3.22;;;2.00;;
45686;SDS011;31399;51.176;7.776;2022-07-21T11:06:33;4.90;;;1.90;;
45686;SDS011;31399;51.176;7.776;2022-07-21T11:11:31;12.38;;;4.20;;
45686;SDS011;31399;51.176;7.776;2022-07-21T11:14:00;12.13;;;3.88;;
45686;SDS011;31399;51.176;7.776;2022-07-21T11:21:52;5.57;;;3.70;;
45686;SDS011;31399;51.176;7.776;2022-07-21T11:24:20;5.70;;;3.55;;
45686;SDS011;31399;51.176;7.776;2022-07-21T11:26:54;5.95;;;4.75;;
45686;SDS011;31399;51.176;7.776;2022-07-21T11:29:31;8.00;;;4.45;;
45686;SDS011;31399;51.176;7.776;2022-07-21T11:31:59;6.72;;;4.63;;
45686;SDS011;31399;51.176;7.776;2022-07-21T11:37:04;6.90;;;4.55;;
45686;SDS011;31399;51.176;7.776;2022-07-21T11:39:51;8.05;;;3.88;;
45686;SDS011;31399;51.176;7.776;2022-07-21T11:42:18;7.32;;;4.45;;
45686;SDS011;31399;51.176;7.776;2022-07-21T11:44:44;5.03;;;4.13;;
45686;SDS011;31399;51.176;7.776;2022-07-21T11:47:13;7.18;;;4.30;;
45686;SDS011;31399;51.176;7.776;2022-07-21T11:49:41;7.40;;;4.40;;
45686;SDS011;31399;51.176;7.776;2022-07-21T11:52:17;6.85;;;4.25;;
45686;SDS011;31399;51.176;7.776;2022-07-21T11:54:45;5.32;;;4.20;;
45686;SDS011;31399;51.176;7.776;2022-07-21T11:57:16;6.38;;;3.92;;
45686;SDS011;31399;51.176;7.776;2022-07-21T11:59:44;6.70;;;4.22;;
45686;SDS011;31399;51.176;7.776;2022-07-21T12:02:13;7.30;;;5.07;;
45686;SDS011;31399;51.176;7.776;2022-07-21T12:07:26;6.90;;;4.15;;
45686;SDS011;31399;51.176;7.776;2022-07-21T12:09:59;5.20;;;4.60;;
45686;SDS011;31399;51.176;7.776;2022-07-21T12:12:29;8.68;;;4.68;;
45686;SDS011;31399;51.176;7.776;2022-07-21T12:14:57;9.95;;;5.07;;
45686;SDS011;31399;51.176;7.776;2022-07-21T12:17:34;6.75;;;4.13;;
45686;SDS011;31399;51.176;7.776;2022-07-21T12:20:03;5.13;;;4.05;;
45686;SDS011;31399;51.176;7.776;2022-07-21T12:22:33;8.25;;;5.10;;
45686;SDS011;31399;51.176;7.776;2022-07-21T12:25:04;8.90;;;5.03;;
45686;SDS011;31399;51.176;7.776;2022-07-21T12:27:34;8.82;;;4.97;;
45686;SDS011;31399;51.176;7.776;2022-07-21T12:30:02;6.60;;;5.35;;
45686;SDS011;31399;51.176;7.776;2022-07-21T12:32:47;8.27;;;5.10;;
45686;SDS011;31399;51.176;7.776;2022-07-21T12:35:22;7.63;;;4.93;;
45686;SDS011;31399;51.176;7.776;2022-07-21T12:40:25;6.68;;;4.88;;
45686;SDS011;31399;51.176;7.776;2022-07-21T12:43:03;8.32;;;5.22;;
45686;SDS011;31399;51.176;7.776;2022-07-21T12:45:31;7.47;;;5.95;;
45686;SDS011;31399;51.176;7.776;2022-07-21T12:48:06;10.60;;;5.75;;
45686;SDS011;31399;51.176;7.776;2022-07-21T12:50:39;6.05;;;4.85;;
45686;SDS011;31399;51.176;7.776;2022-07-21T12:53:09;8.02;;;5.32;;
45686;SDS011;31399;51.176;7.776;2022-07-21T12:55:37;6.70;;;5.18;;
45686;SDS011;31399;51.176;7.776;2022-07-21T12:58:05;7.53;;;5.35;;
45686;SDS011;31399;51.176;7.776;2022-07-21T13:00:31;9.48;;;5.50;;
45686;SDS011;31399;51.176;7.776;2022-07-21T13:02:58;9.75;;;5.53;;
45686;SDS011;31399;51.176;7.776;2022-07-21T13:05:25;9.02;;;5.43;;
45686;SDS011;31399;51.176;7.776;2022-07-21T13:07:52;8.63;;;5.45;;
45686;SDS011;31399;51.176;7.776;2022-07-21T13:10:19;8.95;;;6.00;;
45686;SDS011;31399;51.176;7.776;2022-07-21T13:12:46;11.32;;;5.75;;
45686;SDS011;31399;51.176;7.776;2022-07-21T13:15:13;9.55;;;6.50;;
45686;SDS011;31399;51.176;7.776;2022-07-21T13:17:40;8.68;;;6.25;;
45686;SDS011;31399;51.176;7.776;2022-07-21T13:20:07;10.73;;;5.80;;
45686;SDS011;31399;51.176;7.776;2022-07-21T13:22:34;9.15;;;6.05;;
45686;SDS011;31399;51.176;7.776;2022-07-21T13:25:01;10.68;;;6.85;;
45686;SDS011;31399;51.176;7.776;2022-07-21T13:27:29;10.15;;;6.57;;
45686;SDS011;31399;51.176;7.776;2022-07-21T13:29:55;9.98;;;6.43;;
45686;SDS011;31399;51.176;7.776;2022-07-21T13:32:22;9.75;;;6.57;;
45686;SDS011;31399;51.176;7.776;2022-07-21T13:34:49;8.85;;;4.95;;
45686;SDS011;31399;51.176;7.776;2022-07-21T13:37:35;6.68;;;4.45;;
45686;SDS011;31399;51.176;7.776;2022-07-21T13:40:02;4.05;;;3.20;;
45686;SDS011;31399;51.176;7.776;2022-07-21T13:42:49;3.20;;;2.75;;
45686;SDS011;31399;51.176;7.776;2022-07-21T13:45:36;3.33;;;2.35;;
45686;SDS011;31399;51.176;7.776;2022-07-21T13:48:03;3.85;;;2.67;;
45686;SDS011;31399;51.176;7.776;2022-07-21T13:50:30;2.80;;;2.20;;
45686;SDS011;31399;51.176;7.776;2022-07-21T13:52:57;2.80;;;2.50;;
45686;SDS011;31399;51.176;7.776;2022-07-21T13:55:23;3.63;;;2.25;;
45686;SDS011;31399;51.176;7.776;2022-07-21T13:57:50;2.50;;;2.22;;
45686;SDS011;31399;51.176;7.776;2022-07-21T14:00:17;2.70;;;2.10;;
45686;SDS011;31399;51.176;7.776;2022-07-21T14:02:44;2.15;;;1.77;;
45686;SDS011;31399;51.176;7.776;2022-07-21T14:05:10;3.78;;;1.98;;
45686;SDS011;31399;51.176;7.776;2022-07-21T14:07:37;2.50;;;2.30;;
45686;SDS011;31399;51.176;7.776;2022-07-21T14:10:04;2.00;;;1.58;;
45686;SDS011;31399;51.176;7.776;2022-07-21T14:12:32;2.97;;;1.40;;
45686;SDS011;31399;51.176;7.776;2022-07-21T14:15:07;1.33;;;1.23;;
45686;SDS011;31399;51.176;7.776;2022-07-21T14:17:34;2.00;;;1.80;;
45686;SDS011;31399;51.176;7.776;2022-07-21T14:20:01;1.65;;;1.55;;
45686;SDS011;31399;51.176;7.776;2022-07-21T14:22:28;1.88;;;1.10;;
45686;SDS011;31399;51.176;7.776;2022-07-21T14:24:55;2.25;;;1.05;;
45686;SDS011;31399;51.176;7.776;2022-07-21T14:27:40;1.48;;;1.20;;
45686;SDS011;31399;51.176;7.776;2022-07-21T14:30:07;1.85;;;1.02;;
45686;SDS011;31399;51.176;7.776;2022-07-21T14:32:34;1.40;;;1.13;;
45686;SDS011;31399;51.176;7.776;2022-07-21T14:35:01;1.50;;;1.10;;
45686;SDS011;31399;51.176;7.776;2022-07-21T14:37:27;1.67;;;1.13;;
45686;SDS011;31399;51.176;7.776;2022-07-21T14:39:54;1.02;;;0.85;;
45686;SDS011;31399;51.176;7.776;2022-07-21T14:42:21;1.38;;;0.90;;
45686;SDS011;31399;51.176;7.776;2022-07-21T14:44:51;0.85;;;0.70;;
45686;SDS011;31399;51.176;7.776;2022-07-21T14:47:17;1.60;;;1.02;;
45686;SDS011;31399;51.176;7.776;2022-07-21T14:49:44;1.52;;;0.80;;
45686;SDS011;31399;51.176;7.776;2022-07-21T14:52:10;1.08;;;0.85;;
45686;SDS011;31399;51.176;7.776;2022-07-21T14:54:37;1.40;;;0.70;;
45686;SDS011;31399;51.176;7.776;2022-07-21T14:57:04;1.45;;;1.00;;
45686;SDS011;31399;51.176;7.776;2022-07-21T14:59:35;0.80;;;0.63;;
45686;SDS011;31399;51.176;7.776;2022-07-21T15:02:02;2.30;;;1.10;;
45686;SDS011;31399;51.176;7.776;2022-07-21T15:04:37;2.60;;;1.92;;
45686;SDS011;31399;51.176;7.776;2022-07-21T15:07:04;3.22;;;2.70;;
45686;SDS011;31399;51.176;7.776;2022-07-21T15:09:31;4.80;;;3.05;;
45686;SDS011;31399;51.176;7.776;2022-07-21T15:11:57;5.03;;;3.63;;
45686;SDS011;31399;51.176;7.776;2022-07-21T15:14:24;6.20;;;4.50;;
45686;SDS011;31399;51.176;7.776;2022-07-21T15:16:50;8.15;;;4.57;;
45686;SDS011;31399;51.176;7.776;2022-07-21T15:19:17;7.15;;;5.05;;
45686;SDS011;31399;51.176;7.776;2022-07-21T15:21:44;17.17;;;8.02;;
45686;SDS011;31399;51.176;7.776;2022-07-21T15:24:10;15.65;;;8.23;;
45686;SDS011;31399;51.176;7.776;2022-07-21T15:26:37;11.43;;;8.10;;
45686;SDS011;31399;51.176;7.776;2022-07-21T15:29:04;11.07;;;7.60;;
45686;SDS011;31399;51.176;7.776;2022-07-21T15:31:31;11.82;;;7.57;;
45686;SDS011;31399;51.176;7.776;2022-07-21T15:33:58;12.15;;;8.35;;
45686;SDS011;31399;51.176;7.776;2022-07-21T15:36:25;10.70;;;8.27;;
45686;SDS011;31399;51.176;7.776;2022-07-21T15:38:52;11.55;;;7.30;;
45686;SDS011;31399;51.176;7.776;2022-07-21T15:41:19;14.30;;;7.95;;